Flight Track Log - Related Links

Times and Time Zones

All times are in EDT time to prevent confusion due to time zone crossing. See the N524NK flight status page for this flight to view local times or setup timezone preferences in your user account.

Time Position Orientation Groundspeed Altitude Reporting Facility
EDT Latitude Longitude Course Direction KTS MPH feet Rate Location/Type
Wed 12:53:27 PM 26.0770 -80.1370 87° East 150 173 500  Level FlightAware ADS-B
Wed 12:53:57 PM 26.0790 -80.1130 85° East 168 193 1,400 1,527 Climbing FlightAware ADS-B
Wed 12:54:22 PM 26.0810 -80.0900 84° East 200 230 1,900 1,527 Climbing FlightAware ADS-B
Wed 12:54:52 PM 26.0840 -80.0560 84° East 237 273 2,800 2,291 Climbing FlightAware ADS-B
Wed 12:55:17 PM 26.0880 -80.0220 83° East 261 300 4,000 2,800 Climbing FlightAware ADS-B
Wed 12:55:37 PM 26.0900 -79.9970 85° East 270 311 4,900 3,200 Climbing FlightAware ADS-B
Wed 12:56:02 PM 26.0850 -79.9620 99° East 274 315 6,400 3,600 Climbing FlightAware ADS-B
Wed 12:56:27 PM 26.0780 -79.9250 102° East 279 321 7,900 3,273 Climbing FlightAware ADS-B
Wed 12:56:57 PM 26.0710 -79.8830 101° East 284 327 9,400 2,314 Climbing FlightAware ADS-B
Wed 12:57:37 PM 26.0590 -79.8230 103° East 319 367 10,600 1,482 Climbing FlightAware ADS-B
Wed 12:58:22 PM 26.0440 -79.7460 102° East 364 419 11,500 1,765 Climbing FlightAware ADS-B
Wed 12:59:02 PM 26.0300 -79.6700 102° East 375 432 13,100 2,550 Climbing FlightAware ADS-B
Wed 12:59:42 PM 26.0150 -79.5940 102° East 377 434 14,900 2,400 Climbing FlightAware ADS-B
Wed 01:00:27 PM 25.9980 -79.5080 102° East 386 444 16,500 2,047 Climbing FlightAware ADS-B
Wed 01:01:07 PM 25.9830 -79.4280 102° East 399 459 17,800 1,906 Climbing FlightAware ADS-B
Wed 01:01:52 PM 25.9690 -79.3390 100° East 412 474 19,200 1,835 Climbing FlightAware ADS-B
Wed 01:02:32 PM 25.9570 -79.2540 99° East 421 484 20,400 1,600 Climbing FlightAware ADS-B
Wed 01:03:22 PM 25.9430 -79.1510 99° East 428 493 21,600 1,020 Climbing FlightAware ADS-B
Wed 01:04:12 PM 25.9140 -79.0470 107° East 440 506 22,100 1,129 Climbing FlightAware ADS-B
Wed 01:04:47 PM 25.8600 -78.9770 131° Southeast 452 520 23,200 776 Climbing FlightAware ADS-B
Wed 01:05:37 PM 25.8150 -78.8920 120° Southeast 452 520 23,200  Level FlightAware ADS-B
Wed 01:06:17 PM 25.7800 -78.8240 120° Southeast 452 520 23,200 2,700 Level FlightAware ADS-B
Wed 01:06:57 PM 25.7110 -78.7020 122° Southeast 481 554 26,800 3,106 Climbing FlightAware ADS-B
Wed 01:07:42 PM 25.6600 -78.6080 121° Southeast 491 565 27,600 988 Climbing FlightAware ADS-B
Wed 01:08:22 PM 25.6120 -78.5190 121° Southeast 501 577 28,200 675 Climbing FlightAware ADS-B
Wed 01:09:02 PM 25.5670 -78.4340 120° Southeast 505 581 28,500 825 Climbing FlightAware ADS-B
Wed 01:09:42 PM 25.5250 -78.3560 121° Southeast 505 581 29,300 600 Climbing FlightAware ADS-B
Wed 01:10:22 PM 25.4850 -78.2800 120° Southeast 505 581 29,300  Level FlightAware ADS-B
Wed 01:11:12 PM 25.4360 -78.1840 119° Southeast 505 581 29,300 1,200 Level FlightAware ADS-B
Wed 01:11:52 PM 25.3590 -78.0530 123° Southeast 31,600 1,832 Climbing FlightAware ADS-B
Wed 01:12:47 PM 25.2870 -77.9210 121° Southeast 531 611 32,200 379 Climbing FlightAware ADS-B
Wed 01:13:27 PM 25.2440 -77.8420 121° Southeast 531 611 32,200  Level FlightAware ADS-B
Wed 01:14:07 PM 25.2010 -77.7630 121° Southeast 531 611 32,200  Level FlightAware ADS-B
Wed 01:14:47 PM 25.1580 -77.6840 121° Southeast 531 611 32,200  Level FlightAware ADS-B
Wed 01:15:37 PM 25.1040 -77.5850 121° Southeast 531 611 32,200  Level FlightAware ADS-B
Wed 01:16:17 PM 25.0610 -77.5060 121° Southeast 531 611 32,200  Level FlightAware ADS-B
Wed 01:16:57 PM 25.0180 -77.4270 121° Southeast 531 611 32,200  Level FlightAware ADS-B
Wed 01:17:37 PM 24.9750 -77.3480 121° Southeast 531 611 32,200  Level FlightAware ADS-B
Wed 01:18:27 PM 24.9210 -77.2490 121° Southeast 531 611 32,200  Level FlightAware ADS-B
Wed 01:19:07 PM 24.8780 -77.1700 121° Southeast 531 611 32,200  Level FlightAware ADS-B
Wed 01:19:47 PM 24.8350 -77.0920 121° Southeast 531 611 32,200  Level FlightAware ADS-B
Wed 01:20:27 PM 24.7920 -77.0130 121° Southeast 531 611 32,200  Level FlightAware ADS-B
Wed 01:21:07 PM 24.7490 -76.9340 121° Southeast 531 611 32,200  Level FlightAware ADS-B
Wed 01:21:47 PM 24.7060 -76.8550 121° Southeast 531 611 32,200 3,130 Level FlightAware ADS-B
Wed 01:22:39 PM 24.4792 -76.6122 121° Southeast 526 605 37,000 2,571 Climbing Miami Center
Wed 01:23:39 PM 24.3953 -76.4869 126° Southeast 521 600 37,000  Level Miami Center
Wed 01:24:40 PM 24.3114 -76.3550 125° Southeast 521 600 37,000  Level Miami Center
Wed 01:25:39 PM 24.2333 -76.2183 122° Southeast 521 600 37,000  Level Miami Center
Wed 01:26:39 PM 24.1639 -76.0844 120° Southeast 516 594 37,000  Level Miami Center
Wed 01:27:39 PM 24.0919 -75.9483 120° Southeast 516 594 37,000  Level Miami Center
Wed 01:28:39 PM 24.0158 -75.8100 121° Southeast 521 600 37,000  Level Miami Center
Wed 01:29:39 PM 23.9439 -75.6742 120° Southeast 521 600 37,000 50 Level Miami Center
Wed 01:30:40 PM 23.8694 -75.5342 120° Southeast 521 600 37,100  Climbing Miami Center
Wed 01:31:39 PM 23.7928 -75.3964 121° Southeast 526 605 37,000 -50 Descending Miami Center
Wed 01:32:40 PM 23.7183 -75.2589 121° Southeast 531 611 37,000  Level Miami Center
Wed 01:33:39 PM 23.6417 -75.1236 122° Southeast 531 611 37,000  Level Miami Center
Wed 01:34:39 PM 23.5689 -74.9886 120° Southeast 531 611 37,000  Level Miami Center
Wed 01:35:39 PM 23.5069 -74.8786 122° Southeast 531 611 37,000  Level Miami Center
Wed 01:36:39 PM 23.4256 -74.7328 121° Southeast 526 605 37,000  Level Miami Center
Wed 01:37:39 PM 23.3506 -74.5983 121° Southeast 526 605 37,000  Level Miami Center
Wed 01:38:39 PM 23.2753 -74.4617 121° Southeast 526 605 37,000  Level Miami Center
Wed 01:39:39 PM 23.2000 -74.3297 122° Southeast 521 600 37,000  Level Miami Center
Wed 01:40:40 PM 23.1267 -74.1978 121° Southeast 516 594 37,000  Level Miami Center
Wed 01:41:39 PM 23.0531 -74.0617 120° Southeast 516 594 37,000  Level Miami Center
Wed 01:42:39 PM 22.9775 -73.9258 121° Southeast 521 600 37,000  Level Miami Center
Wed 01:43:39 PM 22.9017 -73.7900 121° Southeast 521 600 37,000  Level Miami Center
Wed 01:44:39 PM 22.8258 -73.6589 122° Southeast 521 600 37,000  Level Miami Center
Wed 01:45:39 PM 22.7475 -73.5233 122° Southeast 521 600 37,000  Level Miami Center
Wed 01:46:39 PM 22.6694 -73.3881 122° Southeast 521 600 37,000  Level Miami Center
Wed 01:47:39 PM 22.5953 -73.2506 120° Southeast 527 606 37,000  Level Miami Center
Wed 01:48:39 PM 22.5208 -73.1156 121° Southeast 532 612 37,000  Level Miami Center
Wed 01:49:39 PM 22.4422 -72.9786 122° Southeast 532 612 37,000  Level Miami Center
Wed 01:50:39 PM 22.3678 -72.8461 121° Southeast 532 612 37,000  Level Miami Center
Wed 01:51:39 PM 22.2869 -72.7094 123° Southeast 532 612 37,000  Level Miami Center
Wed 01:52:39 PM 22.2100 -72.5775 122° Southeast 532 612 37,000  Level Miami Center
Wed 01:53:39 PM 22.1375 -72.4453 121° Southeast 527 606 37,000  Level Miami Center
Wed 01:54:39 PM 22.0606 -72.3158 123° Southeast 522 601 37,000  Level Miami Center
Wed 01:55:39 PM 21.9878 -72.1842 121° Southeast 517 595 37,000  Level Miami Center
Wed 01:56:39 PM 21.9106 -72.0547 123° Southeast 517 595 37,000  Level Miami Center
Wed 01:57:39 PM 21.8356 -71.9236 122° Southeast 517 595 37,000  Level Miami Center
Wed 01:58:39 PM 21.7603 -71.7944 122° Southeast 512 589 37,000  Level Miami Center
Wed 01:59:40 PM 21.6831 -71.6658 123° Southeast 512 589 37,000  Level Miami Center
Wed 02:00:40 PM 21.6075 -71.5347 122° Southeast 512 589 37,000  Level Miami Center
Wed 02:01:39 PM 21.5322 -71.4086 123° Southeast 512 589 37,000  Level Miami Center
Wed 02:02:39 PM 21.4544 -71.2758 122° Southeast 505 581 37,000  Level Miami Center
Wed 02:03:39 PM 21.3614 -71.1283 124° Southeast 517 595 37,000  Level Miami Center
Wed 02:04:39 PM 21.2875 -70.9956 121° Southeast 535 616 37,000  Level Miami Center
Wed 02:05:39 PM 21.2117 -70.8656 122° Southeast 529 609 37,000  Level Miami Center
Wed 02:06:39 PM 21.1358 -70.7378 122° Southeast 524 603 37,000  Level Miami Center
Wed 02:07:39 PM 21.0556 -70.6081 124° Southeast 519 597 37,000  Level Miami Center
Wed 02:08:39 PM 20.9794 -70.4808 123° Southeast 519 597 37,000  Level Miami Center
Wed 02:09:39 PM 20.9011 -70.3514 123° Southeast 513 590 37,000  Level Miami Center
Wed 02:10:39 PM 20.8244 -70.2197 122° Southeast 513 590 37,000  Level Miami Center
Wed 02:11:40 PM 20.7439 -70.0908 124° Southeast 513 590 37,000  Level Miami Center
Wed 02:12:39 PM 20.6675 -69.9639 123° Southeast 513 590 37,000  Level Miami Center
Wed 02:13:39 PM 20.5889 -69.8350 123° Southeast 513 590 37,000  Level Miami Center
Wed 02:14:39 PM 20.5100 -69.7064 123° Southeast 513 590 37,000 50 Level Miami Center
Wed 02:15:39 PM 20.4331 -69.5758 122° Southeast 518 596 37,100 50 Climbing Miami Center
Wed 02:16:39 PM 20.3519 -69.4453 124° Southeast 518 596 37,100 -50 Level Miami Center
Wed 02:17:39 PM 20.2728 -69.3150 123° Southeast 523 602 37,000 -50 Descending Miami Center
Wed 02:18:39 PM 20.1939 -69.1869 123° Southeast 523 602 37,000  Level Miami Center
Wed 02:19:39 PM 20.1125 -69.0592 124° Southeast 523 602 37,000  Level Miami Center
Wed 02:20:39 PM 20.0333 -68.9317 123° Southeast 523 602 37,000  Level Miami Center
Wed 02:21:39 PM 19.9600 -68.8014 121° Southeast 518 596 37,000  Level Miami Center
Wed 02:22:39 PM 19.9089 -68.6569 111° Southeast 512 589 37,000  Level Miami Center
Wed 02:28:17 PM 19.6180 -67.8410 111° Southeast 527 606 37,000  Level FlightAware ADS-B
Wed 02:28:57 PM 19.5820 -67.7440 111° Southeast 528 608 37,000  Level FlightAware ADS-B
Wed 02:29:42 PM 19.5420 -67.6370 112° Southeast 528 608 37,000  Level FlightAware ADS-B
Wed 02:30:22 PM 19.5050 -67.5410 112° Southeast 529 609 37,000  Level FlightAware ADS-B
Wed 02:31:07 PM 19.4630 -67.4290 112° Southeast 527 606 37,000  Level FlightAware ADS-B
Wed 02:31:47 PM 19.4290 -67.3370 111° Southeast 527 606 37,000  Level FlightAware ADS-B
Wed 02:32:32 PM 19.3880 -67.2290 112° Southeast 527 606 37,000  Level FlightAware ADS-B
Wed 02:33:12 PM 19.3530 -67.1350 112° Southeast 526 605 37,000  Level FlightAware ADS-B
Wed 02:33:52 PM 19.3160 -67.0370 112° Southeast 527 606 37,000  Level FlightAware ADS-B
Wed 02:34:37 PM 19.2740 -66.9260 112° Southeast 526 605 37,000  Level FlightAware ADS-B
Wed 02:35:17 PM 19.2390 -66.8350 112° Southeast 527 606 37,000  Level FlightAware ADS-B
Wed 02:36:02 PM 19.1970 -66.7250 112° Southeast 526 605 37,000  Level FlightAware ADS-B
Wed 02:36:42 PM 19.1610 -66.6310 112° Southeast 528 608 37,000 -900 Level FlightAware ADS-B
Wed 02:37:22 PM 19.1250 -66.5350 112° Southeast 539 620 35,800 -2,682 Descending FlightAware ADS-B
Wed 02:38:07 PM 19.0810 -66.4220 112° Southeast 531 611 33,200 -3,812 Descending FlightAware ADS-B
Wed 02:38:47 PM 19.0450 -66.3280 112° Southeast 525 604 30,400 -4,725 Descending FlightAware ADS-B
Wed 02:39:27 PM 19.0090 -66.2330 112° Southeast 516 594 26,900 -4,376 Descending FlightAware ADS-B
Wed 02:40:12 PM 18.9710 -66.1330 112° Southeast 478 550 24,200 -2,824 Descending FlightAware ADS-B
Wed 02:40:52 PM 18.9390 -66.0490 112° Southeast 460 529 22,900 -2,118 Descending FlightAware ADS-B
Wed 02:41:37 PM 18.9030 -65.9540 112° Southeast 447 514 21,200 -2,259 Descending FlightAware ADS-B
Wed 02:42:17 PM 18.8710 -65.8750 113° Southeast 439 505 19,700 -2,259 Descending FlightAware ADS-B
Wed 02:43:02 PM 18.8370 -65.7880 112° Southeast 431 496 18,000 -2,188 Descending FlightAware ADS-B
Wed 02:43:42 PM 18.8080 -65.7130 112° Southeast 422 486 16,600 -2,175 Descending FlightAware ADS-B
Wed 02:44:22 PM 18.7780 -65.6360 112° Southeast 413 475 15,100 -2,259 Descending FlightAware ADS-B
Wed 02:45:07 PM 18.7460 -65.5510 112° Southeast 400 460 13,400 -2,175 Descending FlightAware ADS-B
Wed 02:45:42 PM 18.7220 -65.4910 113° Southeast 390 449 12,200 -1,500 Descending FlightAware ADS-B
Wed 02:46:27 PM 18.6930 -65.4170 112° Southeast 363 418 11,400 -900 Descending FlightAware ADS-B
Wed 02:47:02 PM 18.6650 -65.3660 120° Southeast 335 386 11,000 -720 Descending FlightAware ADS-B
Wed 02:47:17 PM 18.6440 -65.3530 150° Southeast 323 372 10,800 -1,320 Descending FlightAware ADS-B
Wed 02:47:52 PM 18.6010 -65.3300 153° Southeast 297 342 9,900 -1,125 Descending FlightAware ADS-B
Wed 02:48:37 PM 18.5490 -65.3000 151° Southeast 293 337 9,300 -1,840 Descending FlightAware ADS-B
Wed 02:49:07 PM 18.5100 -65.2800 154° Southeast 279 321 7,600 -1,855 Descending FlightAware ADS-B
Wed 02:49:32 PM 18.4850 -65.2650 150° Southeast 279 321 7,600 -1,125 Level FlightAware ADS-B
Wed 02:50:43 PM 18.4167 -65.2167 150° Southeast 230 265 5,800 -1,511 Descending San Juan Center
Wed 02:51:43 PM 18.3500 -65.1833 155° Southeast 230 265 4,300 -1,400 Descending San Juan Center
Wed 02:52:43 PM 18.3167 -65.1500 136° Southeast 210 242 3,000 -1,050 Descending San Juan Center
Wed 02:53:43 PM 18.3167 -65.1000 90° East 180 207 2,200 -744 Descending San Juan Center
Wed 02:54:44 PM 18.3333 -65.0500 71° East 150 173 1,500 -744 Descending San Juan Center
Wed 02:55:44 PM 18.3333 -65.0167 90° East 130 150 700 -800 Descending San Juan Center

Login

Don't have an account? Register now (free) for customized features, flight alerts, and more!